createdAt,value
2022-11-21T00:00:04.649Z,20.70
2022-11-21T00:01:04.103Z,23.80
2022-11-21T00:02:07.064Z,22.10
2022-11-21T00:03:04.075Z,22.70
2022-11-21T00:04:04.053Z,22.10
2022-11-21T00:05:04.060Z,24.40
2022-11-21T00:06:04.035Z,25.30
2022-11-21T00:07:04.084Z,22.10
2022-11-21T00:08:04.546Z,25.20
2022-11-21T00:09:03.990Z,23.40
2022-11-21T00:10:10.548Z,24.80
2022-11-21T00:11:03.988Z,22.40
2022-11-21T00:12:03.990Z,23.30
2022-11-21T00:13:03.964Z,22.40
2022-11-21T00:14:03.945Z,25.60
2022-11-21T00:15:04.544Z,25.40
2022-11-21T00:16:04.547Z,24.10
2022-11-21T00:17:03.906Z,23.00
2022-11-21T00:18:04.080Z,23.60
2022-11-21T00:19:24.918Z,32.50
2022-11-21T00:20:03.877Z,24.00
2022-11-21T00:21:03.877Z,21.80
2022-11-21T00:22:04.074Z,24.70
2022-11-21T00:23:03.845Z,26.20
2022-11-21T00:24:03.856Z,24.60
2022-11-21T00:25:03.819Z,25.30
2022-11-21T00:26:03.822Z,26.30
2022-11-21T00:27:03.852Z,28.30
2022-11-21T00:28:04.594Z,23.60
2022-11-21T00:29:03.768Z,31.60
2022-11-21T00:30:03.789Z,25.90
2022-11-21T00:31:04.537Z,23.40
2022-11-21T00:32:03.745Z,24.60
2022-11-21T00:33:03.772Z,28.20
2022-11-21T00:34:25.090Z,22.70
2022-11-21T00:35:03.716Z,28.50
2022-11-21T00:36:03.705Z,25.60
2022-11-21T00:37:03.707Z,25.10
2022-11-21T00:38:03.683Z,27.50
2022-11-21T00:39:10.541Z,26.20
2022-11-21T00:40:03.661Z,25.40
2022-11-21T00:41:03.651Z,29.90
2022-11-21T00:42:10.543Z,23.80
2022-11-21T00:43:03.641Z,26.50
2022-11-21T00:44:03.638Z,23.00
2022-11-21T00:45:10.556Z,26.10
2022-11-21T00:46:03.601Z,28.00
2022-11-21T00:47:04.539Z,28.20
2022-11-21T00:48:03.572Z,30.70
2022-11-21T00:49:03.560Z,25.80
2022-11-21T00:50:03.567Z,25.10
2022-11-21T00:51:03.572Z,23.60
2022-11-21T00:52:03.517Z,26.30
2022-11-21T00:53:03.518Z,25.10
2022-11-21T00:54:03.572Z,25.50
2022-11-21T00:55:03.502Z,26.00
2022-11-21T00:56:03.513Z,26.50
2022-11-21T00:57:03.496Z,27.80
2022-11-21T00:58:04.051Z,29.10
2022-11-21T00:59:03.559Z,28.20
2022-11-21T01:00:04.057Z,24.10
2022-11-21T01:01:03.636Z,24.60
2022-11-21T01:02:04.049Z,28.80
2022-11-21T01:03:03.425Z,28.10
2022-11-21T01:04:03.409Z,27.20
2022-11-21T01:05:03.378Z,31.60
2022-11-21T01:06:03.423Z,27.80
2022-11-21T01:07:03.593Z,31.00
2022-11-21T01:08:04.039Z,28.20
2022-11-21T01:09:03.375Z,27.50
2022-11-21T01:10:03.339Z,27.00
2022-11-21T01:11:04.042Z,25.30
2022-11-21T01:12:06.041Z,31.80
2022-11-21T01:13:03.348Z,27.00
2022-11-21T01:14:03.285Z,29.80
2022-11-21T01:15:03.278Z,28.40
2022-11-21T01:16:06.033Z,28.80
2022-11-21T01:17:04.044Z,31.00
2022-11-21T01:18:04.555Z,24.20
2022-11-21T01:19:06.060Z,29.20
2022-11-21T01:20:03.271Z,29.50
2022-11-21T01:21:03.222Z,26.80
2022-11-21T01:22:03.208Z,26.60
2022-11-21T01:23:04.045Z,29.50
2022-11-21T01:24:04.044Z,29.80
2022-11-21T01:25:03.173Z,31.60
2022-11-21T01:26:03.172Z,28.80
2022-11-21T01:27:03.157Z,33.30
2022-11-21T01:28:03.152Z,30.80
2022-11-21T01:29:03.157Z,29.60
2022-11-21T01:30:03.126Z,32.20
2022-11-21T01:31:06.593Z,30.40
2022-11-21T01:32:03.096Z,31.60
2022-11-21T01:33:04.039Z,33.20
2022-11-21T01:34:03.102Z,35.20
2022-11-21T01:35:03.056Z,33.20
2022-11-21T01:36:06.050Z,32.70
2022-11-21T01:37:03.055Z,37.90
2022-11-21T01:38:03.035Z,32.30
2022-11-21T01:39:03.532Z,33.10
2022-11-21T01:40:03.531Z,31.70
2022-11-21T01:41:02.988Z,34.90
2022-11-21T01:42:03.018Z,34.90
2022-11-21T01:43:02.981Z,39.50
2022-11-21T01:44:02.981Z,37.20
2022-11-21T01:45:02.987Z,36.60
2022-11-21T01:46:02.949Z,36.30
2022-11-21T01:47:03.065Z,36.70
2022-11-21T01:48:02.921Z,34.90
2022-11-21T01:49:03.533Z,36.60
2022-11-21T01:50:02.920Z,36.90
2022-11-21T01:51:02.894Z,38.40
2022-11-21T01:52:02.884Z,40.60
2022-11-21T01:53:03.078Z,30.30
2022-11-21T01:54:02.856Z,35.10
2022-11-21T01:55:02.841Z,38.40
2022-11-21T01:56:03.542Z,39.10
2022-11-21T01:57:02.830Z,33.00
2022-11-21T01:58:02.811Z,29.60
2022-11-21T01:59:02.819Z,39.60
2022-11-21T02:00:02.807Z,38.60
2022-11-21T02:01:02.867Z,37.50
2022-11-21T02:02:02.796Z,40.00
2022-11-21T02:03:02.764Z,39.10
2022-11-21T02:04:05.538Z,31.40
2022-11-21T02:05:02.744Z,43.50
2022-11-21T02:06:02.753Z,46.10
2022-11-21T02:07:02.797Z,44.60
2022-11-21T02:08:02.718Z,37.00
2022-11-21T02:09:02.707Z,36.90
2022-11-21T02:10:02.711Z,37.10
2022-11-21T02:11:03.054Z,38.80
2022-11-21T02:12:02.673Z,41.70
2022-11-21T02:13:02.664Z,39.30
2022-11-21T02:14:02.644Z,36.00
2022-11-21T02:15:03.535Z,37.20
2022-11-21T02:16:02.620Z,38.00
2022-11-21T02:17:02.635Z,40.20
2022-11-21T02:18:02.603Z,37.20
2022-11-21T02:19:02.574Z,39.20
2022-11-21T02:20:02.575Z,40.10
2022-11-21T02:21:02.567Z,38.70
2022-11-21T02:22:02.582Z,40.00
2022-11-21T02:23:02.611Z,38.20
2022-11-21T02:24:02.537Z,38.40
2022-11-21T02:25:05.049Z,36.20
2022-11-21T02:26:05.052Z,41.30
2022-11-21T02:27:02.499Z,49.10
2022-11-21T02:28:09.046Z,44.90
2022-11-21T02:29:02.581Z,46.50
2022-11-21T02:30:04.584Z,42.10
2022-11-21T02:31:02.462Z,39.90
2022-11-21T02:32:02.454Z,36.10
2022-11-21T02:33:03.055Z,38.20
2022-11-21T02:34:02.559Z,49.50
2022-11-21T02:35:02.419Z,44.40
2022-11-21T02:36:02.400Z,39.00
2022-11-21T02:37:02.383Z,41.70
2022-11-21T02:38:05.047Z,41.50
2022-11-21T02:39:02.396Z,37.50
2022-11-21T02:40:02.353Z,45.40
2022-11-21T02:41:02.354Z,42.80
2022-11-21T02:42:09.037Z,42.30
2022-11-21T02:43:02.319Z,45.20
2022-11-21T02:44:02.309Z,43.00
2022-11-21T02:45:02.335Z,48.80
2022-11-21T02:46:02.288Z,40.30
2022-11-21T02:47:02.284Z,40.70
2022-11-21T02:48:04.238Z,41.10
2022-11-21T02:49:02.279Z,39.50
2022-11-21T02:50:02.271Z,35.90
2022-11-21T02:51:02.273Z,33.50
2022-11-21T02:52:02.221Z,36.00
2022-11-21T02:53:02.220Z,35.70
2022-11-21T02:54:03.027Z,35.30
2022-11-21T02:55:02.222Z,46.40
2022-11-21T02:56:02.155Z,40.20
2022-11-21T02:57:02.178Z,40.30
2022-11-21T02:58:05.170Z,36.70
2022-11-21T02:59:02.145Z,40.60
2022-11-21T03:00:02.138Z,40.80
2022-11-21T03:01:02.710Z,40.10
2022-11-21T03:02:02.115Z,41.40
2022-11-21T03:03:05.035Z,40.10
2022-11-21T03:04:02.092Z,50.40
2022-11-21T03:05:02.100Z,44.70
2022-11-21T03:06:03.036Z,43.50
2022-11-21T03:07:02.141Z,51.60
2022-11-21T03:08:02.037Z,39.90
2022-11-21T03:09:02.060Z,37.40
2022-11-21T03:10:02.029Z,40.70
2022-11-21T03:11:02.020Z,40.40
2022-11-21T03:12:02.011Z,37.60
2022-11-21T03:13:08.539Z,34.70
2022-11-21T03:14:02.018Z,43.90
2022-11-21T03:15:01.984Z,42.00
2022-11-21T03:16:02.535Z,49.50
2022-11-21T03:17:01.958Z,56.10
2022-11-21T03:18:01.946Z,36.70
2022-11-21T03:19:01.940Z,39.60
2022-11-21T03:20:01.944Z,43.50
2022-11-21T03:21:01.934Z,45.40
2022-11-21T03:22:01.899Z,48.30
2022-11-21T03:23:01.942Z,40.70
2022-11-21T03:24:01.883Z,40.30
2022-11-21T03:25:01.892Z,39.40
2022-11-21T03:26:01.856Z,40.60
2022-11-21T03:27:01.847Z,43.00
2022-11-21T03:28:01.866Z,49.40
2022-11-21T03:29:01.820Z,42.40
2022-11-21T03:30:01.811Z,44.60
2022-11-21T03:31:01.820Z,39.60
2022-11-21T03:32:01.810Z,41.20
2022-11-21T03:33:01.786Z,34.60
2022-11-21T03:34:01.778Z,39.00
2022-11-21T03:35:01.777Z,41.30
2022-11-21T03:36:01.751Z,39.50
2022-11-21T03:37:02.540Z,43.20
2022-11-21T03:38:01.770Z,43.30
2022-11-21T03:39:01.705Z,52.90
2022-11-21T03:40:01.708Z,45.20
2022-11-21T03:41:03.599Z,40.50
2022-11-21T03:42:01.688Z,45.60
2022-11-21T03:43:02.050Z,40.40
2022-11-21T03:44:01.672Z,38.20
2022-11-21T03:45:01.648Z,41.20
2022-11-21T03:46:01.648Z,39.00
2022-11-21T03:47:01.623Z,43.50
2022-11-21T03:48:02.063Z,37.50
2022-11-21T03:49:01.598Z,40.30
2022-11-21T03:50:02.534Z,40.40
2022-11-21T03:51:01.583Z,52.20
2022-11-21T03:52:01.585Z,43.90
2022-11-21T03:53:01.594Z,43.10
2022-11-21T03:54:01.561Z,44.80
2022-11-21T03:55:01.543Z,40.80
2022-11-21T03:56:01.540Z,38.30
2022-11-21T03:57:01.542Z,39.70
2022-11-21T03:58:22.517Z,34.00
2022-11-21T03:59:01.494Z,37.00
2022-11-21T04:00:01.496Z,39.60
2022-11-21T04:01:01.526Z,39.60
2022-11-21T04:02:01.542Z,40.40
2022-11-21T04:03:01.452Z,37.60
2022-11-21T04:04:01.448Z,39.70
2022-11-21T04:05:01.436Z,44.90
2022-11-21T04:06:01.428Z,34.70
2022-11-21T04:07:01.614Z,37.60
2022-11-21T04:08:02.472Z,38.10
2022-11-21T04:09:01.414Z,39.60
2022-11-21T04:10:01.439Z,38.10
2022-11-21T04:11:01.388Z,31.80
2022-11-21T04:12:06.407Z,34.20
2022-11-21T04:13:05.036Z,36.70
2022-11-21T04:14:01.352Z,34.00
2022-11-21T04:15:01.327Z,35.70
2022-11-21T04:16:22.321Z,47.10
2022-11-21T04:17:01.310Z,43.60
2022-11-21T04:18:01.320Z,47.40
2022-11-21T04:19:16.030Z,39.00
2022-11-21T04:20:01.274Z,40.90
2022-11-21T04:21:01.256Z,39.90
2022-11-21T04:22:04.027Z,40.30
2022-11-21T04:23:02.298Z,34.60
2022-11-21T04:24:01.242Z,36.80
2022-11-21T04:25:01.235Z,40.40
2022-11-21T04:26:01.222Z,36.60
2022-11-21T04:27:02.027Z,39.40
2022-11-21T04:28:01.186Z,42.90
2022-11-21T04:29:01.180Z,55.80
2022-11-21T04:30:01.187Z,44.70
2022-11-21T04:31:01.747Z,40.60
2022-11-21T04:32:01.169Z,41.30
2022-11-21T04:33:02.035Z,41.30
2022-11-21T04:34:01.122Z,35.90
2022-11-21T04:35:01.114Z,37.70
2022-11-21T04:36:01.126Z,34.90
2022-11-21T04:37:01.129Z,35.80
2022-11-21T04:38:01.076Z,35.40
2022-11-21T04:39:02.035Z,41.80
2022-11-21T04:40:02.037Z,48.90
2022-11-21T04:41:01.065Z,37.80
2022-11-21T04:42:01.056Z,43.40
2022-11-21T04:43:01.055Z,45.10
2022-11-21T04:44:01.018Z,33.00
2022-11-21T04:45:01.004Z,36.60
2022-11-21T04:46:01.525Z,45.30
2022-11-21T04:47:05.083Z,40.50
2022-11-21T04:48:01.069Z,42.10
2022-11-21T04:49:00.956Z,40.70
2022-11-21T04:50:00.952Z,38.30
2022-11-21T04:51:00.943Z,43.00
2022-11-21T04:52:00.938Z,39.40
2022-11-21T04:53:00.920Z,43.70
2022-11-21T04:54:00.918Z,38.00
2022-11-21T04:55:00.898Z,36.70
2022-11-21T04:56:07.535Z,36.10
2022-11-21T04:57:01.054Z,35.10
2022-11-21T04:58:00.853Z,36.00
2022-11-21T04:59:00.849Z,35.60
2022-11-21T05:00:01.565Z,36.60
2022-11-21T05:01:00.856Z,34.00
2022-11-21T05:02:00.843Z,34.30
2022-11-21T05:03:01.524Z,52.50
2022-11-21T05:04:00.812Z,43.70
2022-11-21T05:05:07.538Z,59.10
2022-11-21T05:06:01.531Z,35.70
2022-11-21T05:07:00.775Z,38.80
2022-11-21T05:08:00.752Z,36.60
2022-11-21T05:09:00.759Z,38.10
2022-11-21T05:10:00.724Z,37.00
2022-11-21T05:11:01.518Z,43.50
2022-11-21T05:12:00.724Z,33.30
2022-11-21T05:13:00.701Z,39.50
2022-11-21T05:14:00.691Z,38.50
2022-11-21T05:15:00.728Z,34.90
2022-11-21T05:16:00.661Z,43.90
2022-11-21T05:17:03.531Z,39.80
2022-11-21T05:18:00.640Z,38.00
2022-11-21T05:19:00.632Z,39.10
2022-11-21T05:20:00.630Z,35.90
2022-11-21T05:21:00.624Z,35.30
2022-11-21T05:22:00.626Z,45.60
2022-11-21T05:23:00.591Z,36.90
2022-11-21T05:24:00.567Z,34.40
2022-11-21T05:25:00.597Z,42.70
2022-11-21T05:26:00.547Z,38.10
2022-11-21T05:27:00.555Z,38.20
2022-11-21T05:28:00.577Z,39.10
2022-11-21T05:29:00.514Z,37.40
2022-11-21T05:30:00.512Z,39.80
2022-11-21T05:31:00.533Z,39.40
2022-11-21T05:32:00.493Z,39.90
2022-11-21T05:33:00.502Z,34.90
2022-11-21T05:34:00.483Z,40.20
2022-11-21T05:35:01.025Z,43.40
2022-11-21T05:36:01.512Z,43.40
2022-11-21T05:37:00.451Z,42.40
2022-11-21T05:38:00.454Z,45.00
2022-11-21T05:39:00.418Z,42.10
2022-11-21T05:40:00.401Z,45.00
2022-11-21T05:41:00.393Z,45.20
2022-11-21T05:42:03.106Z,52.10
2022-11-21T05:43:00.389Z,38.20
2022-11-21T05:44:00.416Z,42.70
2022-11-21T05:45:00.414Z,52.40
2022-11-21T05:46:00.339Z,38.20
2022-11-21T05:47:00.328Z,41.50
2022-11-21T05:48:01.025Z,39.30
2022-11-21T05:49:00.324Z,34.90
2022-11-21T05:50:00.299Z,34.70
2022-11-21T05:51:00.297Z,44.00
2022-11-21T05:52:01.025Z,34.10
2022-11-21T05:53:00.288Z,34.40
2022-11-21T05:54:00.278Z,34.90
2022-11-21T05:55:01.021Z,36.70
2022-11-21T05:56:00.224Z,36.00
2022-11-21T05:57:00.219Z,66.20
2022-11-21T05:58:03.034Z,71.90
2022-11-21T05:59:00.556Z,48.20
2022-11-21T06:00:00.214Z,70.70
2022-11-21T06:01:00.358Z,63.00
2022-11-21T06:02:00.181Z,38.80
2022-11-21T06:03:00.242Z,40.10
2022-11-21T06:04:00.147Z,39.70
2022-11-21T06:05:00.131Z,41.60
2022-11-21T06:06:01.029Z,43.70
2022-11-21T06:07:00.244Z,31.60
2022-11-21T06:08:00.122Z,38.00
2022-11-21T06:09:00.099Z,39.40
2022-11-21T06:10:00.088Z,37.10
2022-11-21T06:11:00.075Z,33.90
2022-11-21T06:12:01.064Z,37.00
2022-11-21T06:13:00.041Z,33.80
2022-11-21T06:14:00.074Z,33.90
2022-11-21T06:15:00.015Z,64.80
2022-11-21T06:16:00.023Z,50.60
2022-11-21T06:17:00.062Z,52.70
2022-11-21T06:17:59.992Z,64.40
2022-11-21T06:18:59.966Z,63.60
2022-11-21T06:19:59.963Z,48.40
2022-11-21T06:20:59.973Z,63.10
2022-11-21T06:21:59.944Z,40.50
2022-11-21T06:23:00.069Z,41.60
2022-11-21T06:23:59.944Z,39.10
2022-11-21T06:25:02.534Z,40.30
2022-11-21T06:25:59.898Z,37.30
2022-11-21T06:26:59.876Z,39.50
2022-11-21T06:27:59.873Z,38.00
2022-11-21T06:29:00.098Z,47.90
2022-11-21T06:29:59.858Z,54.30
2022-11-21T06:30:59.854Z,38.40
2022-11-21T06:31:59.846Z,41.40
2022-11-21T06:32:59.847Z,39.60
2022-11-21T06:33:59.816Z,41.80
2022-11-21T06:34:59.830Z,47.70
2022-11-21T06:35:59.791Z,48.70
2022-11-21T06:37:00.521Z,40.50
2022-11-21T06:37:59.785Z,41.40
2022-11-21T06:38:59.777Z,54.60
2022-11-21T06:39:59.754Z,51.60
2022-11-21T06:40:59.738Z,57.10
2022-11-21T06:41:59.734Z,46.50
2022-11-21T06:42:59.739Z,43.90
2022-11-21T06:43:59.703Z,41.80
2022-11-21T06:44:59.729Z,46.40
2022-11-21T06:45:59.680Z,42.30
2022-11-21T06:47:02.550Z,40.30
2022-11-21T06:48:00.550Z,58.20
2022-11-21T06:48:59.656Z,41.20
2022-11-21T06:49:59.631Z,45.50
2022-11-21T06:50:59.657Z,55.00
2022-11-21T06:51:59.615Z,61.60
2022-11-21T06:52:59.617Z,51.50
2022-11-21T06:54:06.520Z,62.30
2022-11-21T06:54:59.579Z,53.80
2022-11-21T06:55:59.556Z,47.60
2022-11-21T06:57:05.048Z,50.60
2022-11-21T06:57:59.549Z,52.20
2022-11-21T06:58:59.546Z,47.90
2022-11-21T06:59:59.526Z,64.10
2022-11-21T07:00:59.606Z,54.20
2022-11-21T07:01:59.512Z,52.30
2022-11-21T07:03:02.934Z,70.00
2022-11-21T07:04:02.008Z,44.30
2022-11-21T07:04:59.474Z,53.50
2022-11-21T07:05:59.485Z,63.60
2022-11-21T07:06:59.615Z,46.50
2022-11-21T07:07:59.441Z,52.70
2022-11-21T07:09:30.997Z,51.70
2022-11-21T07:10:00.416Z,53.40
2022-11-21T07:11:25.277Z,56.40
2022-11-21T07:12:00.407Z,44.40
2022-11-21T07:12:59.400Z,56.00
2022-11-21T07:13:59.381Z,71.90
2022-11-21T07:14:59.355Z,56.30
2022-11-21T07:16:00.027Z,45.70
2022-11-21T07:16:59.363Z,46.40
2022-11-21T07:17:59.339Z,48.30
2022-11-21T07:18:59.565Z,56.10
2022-11-21T07:19:59.320Z,65.80
2022-11-21T07:20:59.298Z,46.40
2022-11-21T07:21:59.291Z,50.60
2022-11-21T07:22:59.309Z,43.20
2022-11-21T07:23:59.261Z,48.60
2022-11-21T07:24:59.246Z,42.40
2022-11-21T07:25:59.252Z,48.10
2022-11-21T07:26:59.237Z,47.90
2022-11-21T07:27:59.223Z,42.20
2022-11-21T07:28:59.236Z,44.50
2022-11-21T07:30:06.015Z,43.50
2022-11-21T07:30:59.199Z,37.80
2022-11-21T07:31:59.180Z,38.20
2022-11-21T07:32:59.173Z,43.70
2022-11-21T07:33:59.145Z,48.20
2022-11-21T07:34:59.182Z,48.30
2022-11-21T07:35:59.134Z,55.20
2022-11-21T07:36:59.141Z,48.10
2022-11-21T07:37:59.125Z,39.40
2022-11-21T07:38:59.110Z,42.30
2022-11-21T07:39:59.098Z,52.20
2022-11-21T07:40:59.086Z,48.00
2022-11-21T07:41:59.091Z,46.20
2022-11-21T07:42:59.062Z,57.80
2022-11-21T07:43:59.046Z,50.90
2022-11-21T07:44:59.046Z,44.00
2022-11-21T07:45:59.044Z,51.70
2022-11-21T07:46:59.036Z,53.30
2022-11-21T07:48:00.047Z,47.40
2022-11-21T07:49:03.114Z,50.40
2022-11-21T07:49:58.985Z,48.00
2022-11-21T07:50:58.992Z,48.40
2022-11-21T07:51:58.963Z,71.20
2022-11-21T07:52:58.964Z,43.60
2022-11-21T07:53:58.965Z,51.50
2022-11-21T07:54:58.918Z,45.40
2022-11-21T07:55:58.950Z,58.30
2022-11-21T07:56:58.908Z,46.20
2022-11-21T07:57:58.889Z,52.60
2022-11-21T07:58:59.050Z,50.70
2022-11-21T07:59:58.877Z,60.70
2022-11-21T08:00:58.862Z,54.70
2022-11-21T08:01:58.935Z,53.70
2022-11-21T08:02:58.832Z,48.40
2022-11-21T08:03:58.846Z,49.00
2022-11-21T08:04:58.809Z,53.10
2022-11-21T08:05:58.810Z,52.00
2022-11-21T08:06:59.641Z,47.20
2022-11-21T08:08:01.519Z,46.60
2022-11-21T08:08:58.800Z,56.00
2022-11-21T08:09:58.767Z,50.50
2022-11-21T08:10:58.764Z,53.20
2022-11-21T08:11:58.731Z,52.40
2022-11-21T08:12:58.747Z,43.20
2022-11-21T08:13:58.720Z,42.10
2022-11-21T08:14:59.055Z,48.40
2022-11-21T08:15:58.699Z,43.00
2022-11-21T08:16:58.688Z,42.80
2022-11-21T08:17:58.672Z,44.40
2022-11-21T08:18:59.510Z,48.80
2022-11-21T08:20:05.514Z,41.50
2022-11-21T08:20:58.635Z,42.70
2022-11-21T08:22:05.538Z,43.40
2022-11-21T08:22:58.616Z,47.70
2022-11-21T08:23:59.659Z,43.80
2022-11-21T08:24:58.605Z,40.30
2022-11-21T08:25:58.613Z,42.30
2022-11-21T08:26:58.566Z,41.80
2022-11-21T08:27:58.563Z,40.80
2022-11-21T08:29:01.514Z,47.80
2022-11-21T08:29:58.541Z,48.70
2022-11-21T08:30:58.524Z,53.50
2022-11-21T08:31:58.539Z,43.30
2022-11-21T08:32:58.507Z,48.20
2022-11-21T08:33:58.481Z,47.60
2022-11-21T08:34:58.480Z,43.00
2022-11-21T08:35:58.477Z,44.40
2022-11-21T08:36:58.483Z,46.10
2022-11-21T08:37:58.460Z,54.90
2022-11-21T08:38:58.443Z,45.40
2022-11-21T08:39:58.418Z,45.10
2022-11-21T08:40:58.442Z,43.80
2022-11-21T08:41:58.407Z,53.70
2022-11-21T08:42:58.394Z,44.60
2022-11-21T08:43:58.391Z,45.40
2022-11-21T08:44:58.374Z,42.80
2022-11-21T08:45:58.349Z,44.00
2022-11-21T08:46:58.404Z,46.20
2022-11-21T08:47:58.330Z,49.50
2022-11-21T08:48:58.325Z,43.60
2022-11-21T08:49:58.307Z,46.70
2022-11-21T08:50:58.304Z,42.90
2022-11-21T08:51:58.550Z,45.50
2022-11-21T08:52:58.278Z,46.00
2022-11-21T08:53:58.309Z,45.00
2022-11-21T08:54:58.262Z,51.10
2022-11-21T08:56:02.877Z,47.00
2022-11-21T08:56:59.244Z,48.70
2022-11-21T08:57:58.233Z,53.20
2022-11-21T08:58:58.242Z,46.10
2022-11-21T08:59:58.201Z,44.10
2022-11-21T09:00:58.207Z,46.30
2022-11-21T09:01:58.276Z,54.30
2022-11-21T09:02:58.165Z,44.30
2022-11-21T09:03:58.178Z,46.00
2022-11-21T09:04:58.141Z,51.80
2022-11-21T09:05:58.129Z,46.40
2022-11-21T09:06:59.188Z,47.60
2022-11-21T09:08:05.017Z,42.90
2022-11-21T09:08:58.119Z,49.10
2022-11-21T09:09:58.107Z,42.80
2022-11-21T09:10:59.051Z,47.70
2022-11-21T09:11:58.111Z,48.60
2022-11-21T09:12:58.064Z,44.20
2022-11-21T09:13:58.072Z,48.20
2022-11-21T09:14:59.010Z,45.10
2022-11-21T09:15:58.042Z,46.90
2022-11-21T09:17:01.821Z,52.80
2022-11-21T09:17:58.032Z,42.80
2022-11-21T09:18:57.987Z,51.00
2022-11-21T09:20:01.612Z,67.70
2022-11-21T09:20:59.055Z,48.90
2022-11-21T09:21:57.951Z,49.80
2022-11-21T09:22:57.949Z,46.30
2022-11-21T09:23:57.935Z,49.10
2022-11-21T09:24:57.933Z,51.90
2022-11-21T09:25:57.980Z,49.40
2022-11-21T09:26:57.913Z,44.90
2022-11-21T09:27:58.057Z,47.40
2022-11-21T09:28:57.894Z,51.20
2022-11-21T09:29:57.860Z,54.90
2022-11-21T09:30:59.181Z,46.20
2022-11-21T09:31:57.844Z,53.90
2022-11-21T09:32:57.830Z,56.60
2022-11-21T09:33:57.819Z,51.00
2022-11-21T09:34:58.513Z,54.70
2022-11-21T09:35:58.038Z,60.10
2022-11-21T09:36:57.790Z,59.20
2022-11-21T09:37:57.823Z,44.80
2022-11-21T09:38:58.507Z,47.60
2022-11-21T09:39:58.521Z,45.20
2022-11-21T09:40:58.520Z,47.20
2022-11-21T09:41:58.547Z,49.10
2022-11-21T09:42:59.547Z,52.00
2022-11-21T09:43:57.705Z,51.90
2022-11-21T09:44:58.525Z,56.70
2022-11-21T09:45:57.702Z,54.90
2022-11-21T09:47:00.516Z,56.00
2022-11-21T09:47:57.683Z,53.10
2022-11-21T09:48:58.064Z,54.10
2022-11-21T09:49:57.642Z,57.50
2022-11-21T09:50:59.118Z,57.60
2022-11-21T09:51:57.620Z,55.10
2022-11-21T09:52:58.542Z,56.70
2022-11-21T09:53:57.620Z,60.70
2022-11-21T09:54:58.505Z,63.10
2022-11-21T09:55:57.582Z,50.20
2022-11-21T09:56:58.513Z,57.80
2022-11-21T09:57:58.545Z,51.90
2022-11-21T09:58:58.510Z,55.30
2022-11-21T09:59:58.556Z,51.90
2022-11-21T10:00:58.713Z,50.90
2022-11-21T10:01:57.501Z,54.60
2022-11-21T10:03:12.016Z,55.60
2022-11-21T10:03:57.485Z,52.40
2022-11-21T10:04:59.043Z,59.80
2022-11-21T10:06:12.028Z,51.80
2022-11-21T10:06:58.021Z,51.40
2022-11-21T10:07:58.024Z,56.30
2022-11-21T10:08:58.055Z,64.90
2022-11-21T10:09:58.044Z,57.60
2022-11-21T10:10:57.410Z,55.80
2022-11-21T10:11:58.048Z,57.70
2022-11-21T10:12:57.437Z,53.80
2022-11-21T10:13:58.033Z,53.60
2022-11-21T10:14:57.364Z,48.10
2022-11-21T10:15:58.016Z,48.60
2022-11-21T10:16:57.484Z,55.90
2022-11-21T10:17:58.063Z,53.30
2022-11-21T10:18:58.022Z,45.20
2022-11-21T10:19:57.305Z,50.00
2022-11-21T10:20:58.118Z,55.30
2022-11-21T10:21:57.286Z,45.30
2022-11-21T10:22:58.031Z,57.60
2022-11-21T10:23:57.292Z,53.10
2022-11-21T10:24:58.085Z,45.70
2022-11-21T10:25:57.234Z,48.50
2022-11-21T10:26:59.104Z,53.10
2022-11-21T10:27:57.228Z,47.10
2022-11-21T10:28:58.060Z,44.60
2022-11-21T10:29:57.214Z,50.30
2022-11-21T10:30:58.013Z,40.20
2022-11-21T10:31:57.165Z,42.20
2022-11-21T10:32:58.017Z,43.40
2022-11-21T10:33:58.006Z,51.60
2022-11-21T10:34:59.106Z,44.90
2022-11-21T10:35:57.128Z,41.70
2022-11-21T10:36:58.016Z,50.80
2022-11-21T10:37:57.106Z,47.90
2022-11-21T10:38:58.022Z,50.10
2022-11-21T10:39:57.099Z,53.00
2022-11-21T10:40:58.119Z,45.80
2022-11-21T10:41:57.060Z,43.00
2022-11-21T10:42:58.030Z,53.50
2022-11-21T10:44:00.067Z,48.60
2022-11-21T10:45:04.020Z,50.10
2022-11-21T10:45:57.036Z,45.10
2022-11-21T10:47:03.513Z,48.60
2022-11-21T10:47:57.010Z,49.90
2022-11-21T10:48:59.500Z,45.20
2022-11-21T10:49:58.561Z,44.50
2022-11-21T10:50:57.510Z,51.10
2022-11-21T10:51:59.514Z,45.10
2022-11-21T10:52:56.978Z,48.60
2022-11-21T10:54:04.662Z,50.20
2022-11-21T10:54:57.949Z,49.00
2022-11-21T10:55:58.543Z,43.00
2022-11-21T10:57:11.511Z,41.10
2022-11-21T10:57:56.928Z,40.00
2022-11-21T10:58:58.547Z,44.40
2022-11-21T10:59:56.857Z,38.60
2022-11-21T11:00:59.663Z,38.10
2022-11-21T11:01:56.857Z,39.10
2022-11-21T11:02:58.534Z,37.60
2022-11-21T11:04:20.806Z,38.60
2022-11-21T11:04:58.759Z,36.00
2022-11-21T11:05:56.797Z,35.30
2022-11-21T11:06:59.693Z,34.20
2022-11-21T11:07:56.775Z,33.30
2022-11-21T11:08:58.610Z,35.30
2022-11-21T11:09:56.749Z,33.20
2022-11-21T11:11:11.513Z,31.30
2022-11-21T11:11:59.520Z,30.80
2022-11-21T11:12:57.768Z,30.40
2022-11-21T11:13:59.516Z,29.70
2022-11-21T11:14:59.097Z,30.50
2022-11-21T11:15:58.071Z,30.00
2022-11-21T11:16:56.691Z,29.50
2022-11-21T11:18:02.694Z,26.70
2022-11-21T11:18:57.768Z,25.20
2022-11-21T11:19:58.544Z,25.50
2022-11-21T11:20:57.975Z,26.30
2022-11-21T11:21:58.547Z,26.80
2022-11-21T11:22:56.613Z,27.40
2022-11-21T11:24:11.510Z,26.30
2022-11-21T11:25:00.462Z,24.10
2022-11-21T11:25:58.551Z,23.80
2022-11-21T11:26:56.576Z,25.90
2022-11-21T11:27:59.589Z,23.80
2022-11-21T11:29:11.504Z,25.70
2022-11-21T11:29:56.721Z,25.60
2022-11-21T11:30:59.037Z,26.70
2022-11-21T11:31:56.541Z,23.40
2022-11-21T11:32:56.507Z,24.20
2022-11-21T11:34:03.008Z,27.10
2022-11-21T11:34:56.492Z,26.50
2022-11-21T11:36:20.031Z,25.90
2022-11-21T11:36:56.458Z,26.60
2022-11-21T11:37:56.467Z,29.90
2022-11-21T11:38:59.011Z,27.70
2022-11-21T11:39:57.013Z,26.50
2022-11-21T11:40:59.012Z,30.90
2022-11-21T11:41:56.409Z,29.20
2022-11-21T11:42:56.393Z,26.90
2022-11-21T11:43:56.391Z,25.20
2022-11-21T11:44:56.373Z,28.50
2022-11-21T11:45:59.010Z,28.60
2022-11-21T11:46:56.339Z,29.90
2022-11-21T11:47:58.113Z,29.40
2022-11-21T11:49:25.543Z,30.00
2022-11-21T11:50:00.029Z,34.40
2022-11-21T11:50:56.320Z,32.10
2022-11-21T11:51:56.325Z,33.20
2022-11-21T11:52:56.274Z,31.60
2022-11-21T11:54:01.014Z,27.30
2022-11-21T11:55:00.011Z,32.60
2022-11-21T11:55:56.244Z,31.40
2022-11-21T11:56:56.231Z,30.50
2022-11-21T11:57:56.238Z,31.10
2022-11-21T11:58:56.362Z,34.00
2022-11-21T11:59:56.204Z,34.40
2022-11-21T12:00:56.190Z,33.10
2022-11-21T12:01:56.224Z,32.10
2022-11-21T12:02:59.650Z,31.80
2022-11-21T12:03:58.251Z,27.40
2022-11-21T12:04:56.159Z,29.20
2022-11-21T12:05:56.137Z,30.30
2022-11-21T12:09:00.150Z,28.00
2022-11-21T12:09:56.095Z,30.70
2022-11-21T12:10:56.108Z,30.90
2022-11-21T12:11:56.058Z,30.60
2022-11-21T12:13:03.014Z,32.50
2022-11-21T12:13:56.044Z,29.80
2022-11-21T12:14:56.029Z,27.60
2022-11-21T12:16:01.746Z,33.20
2022-11-21T12:16:59.515Z,30.90
2022-11-21T12:17:56.009Z,35.10
2022-11-21T12:18:55.993Z,33.70
2022-11-21T12:19:55.967Z,30.70
2022-11-21T12:20:55.999Z,31.30
2022-11-21T12:21:56.042Z,31.10
2022-11-21T12:22:55.948Z,34.70
2022-11-21T12:23:55.944Z,33.80
2022-11-21T12:25:10.527Z,34.30
2022-11-21T12:25:55.924Z,33.20
2022-11-21T12:26:55.898Z,33.30
2022-11-21T12:27:56.542Z,32.00
2022-11-21T12:28:55.895Z,33.70
2022-11-21T12:29:56.511Z,32.50
2022-11-21T12:30:55.849Z,29.00
2022-11-21T12:31:55.852Z,28.20
2022-11-21T12:32:55.832Z,32.90
2022-11-21T12:33:56.512Z,31.40
2022-11-21T12:34:58.509Z,28.40
2022-11-21T12:36:09.044Z,30.60
2022-11-21T12:36:58.556Z,27.60
2022-11-21T12:37:56.836Z,31.10
2022-11-21T12:38:55.768Z,31.40
2022-11-21T12:39:55.752Z,29.00
2022-11-21T12:40:55.754Z,32.40
2022-11-21T12:41:56.527Z,35.30
2022-11-21T12:42:55.739Z,35.00
2022-11-21T12:43:57.770Z,39.90
2022-11-21T12:45:02.517Z,37.80
2022-11-21T12:45:55.720Z,33.60
2022-11-21T12:46:55.681Z,33.50
2022-11-21T12:48:02.511Z,39.40
2022-11-21T12:48:55.678Z,39.30
2022-11-21T12:49:55.668Z,38.20
2022-11-21T12:50:55.647Z,39.00
2022-11-21T12:51:55.629Z,40.50
2022-11-21T12:52:55.626Z,39.60
2022-11-21T12:53:55.617Z,37.70